Antelope, Montana
Current Conditions -  °F | °C
As of 2:52 AM on Sunday 26 Oct 2014 (Local Time) from KISN Reporting Station
Clear Clear  
Wind Chill: 51°   Ceiling: Unl
Heat Index: 51°   Visibility: 10mi
Dew Point: 30°   Wind: 12mph
Humidity: 44%   Direction: 140°SE
Pressure: 29.59"   Gusts: NA
Location:  48.69°N, 104.46°W
Report Text: KISN 260852Z AUTO 14010KT 10SM CLR 11/M01 A2959 RMK AO2 SLP020 T01061011 58043
Loading
Personal Weather Stations






























Interactive Weather Map
Tropical Storm Tracking
New forecast layout! Learn more

10-Day Weather Forecast

Advertisements
Track Severe Weather on mobile